This is the latest recevied weather packets stored in our database for station/object E20ZNR-1. If no packets are shown the sender has not sent any weather packets the latest 10 day(s).
| Time | Temp. | Humidity | Pressure | Rain* | Wind** | Luminosity | Snow |
|---|---|---|---|---|---|---|---|
| 1777520071 | 37.22° C | 55% | 1008 hPa | - | - | 0 W/m² | - |
| 1777519146 | 36.11° C | 60% | 1008 hPa | - | - | 0 W/m² | - |
| 1777518221 | 36.11° C | 56% | 1008 hPa | - | - | 0 W/m² | - |
| 1777517295 | 35.56° C | 56% | 1008 hPa | - | - | 0 W/m² | - |
| 1777516371 | 34.44° C | 63% | 1008 hPa | - | - | 0 W/m² | - |
| 1777515446 | 34.44° C | 62% | 1008 hPa | - | - | 0 W/m² | - |
| 1777514520 | 34.44° C | 60% | 1008 hPa | - | - | 0 W/m² | - |
| 1777513594 | 39.44° C | 48% | 1008 hPa | - | - | 0 W/m² | - |
| 1777512669 | 38.33° C | 51% | 1008 hPa | - | - | 0 W/m² | - |
| 1777511743 | 35° C | 63% | 1008 hPa | - | - | 0 W/m² | - |
| 1777510818 | 32.22° C | 73% | 1008 hPa | - | - | 0 W/m² | - |
| 1777509894 | 30° C | 81% | 1008 hPa | - | - | 0 W/m² | - |
| 1777508969 | 30° C | 79% | 1008 hPa | - | - | 0 W/m² | - |
| 1777508043 | 30.56° C | 79% | 1008 hPa | - | - | 0 W/m² | - |
| 1777507118 | 30.56° C | 82% | 1007 hPa | - | - | 0 W/m² | - |
| 1777506193 | 30° C | 88% | 1007 hPa | - | - | 0 W/m² | - |
| 1777505267 | 28.33° C | 99% | 1006 hPa | - | - | 0 W/m² | - |
| 1777504342 | 27.22° C | 99% | 1006 hPa | - | - | 0 W/m² | - |
| 1777503417 | 27.22° C | 99% | 1006 hPa | - | - | 0 W/m² | - |
| 1777502493 | 27.78° C | 99% | 1006 hPa | - | - | 0 W/m² | - |
| 1777501569 | 27.78° C | 99% | 1006 hPa | - | - | 0 W/m² | - |
| 1777500643 | 27.78° C | 99% | 1005 hPa | - | - | 0 W/m² | - |
| 1777499717 | 27.78° C | 99% | 1005 hPa | - | - | 0 W/m² | - |
| 1777498793 | 28.33° C | 99% | 1005 hPa | - | - | 0 W/m² | - |
| 1777497869 | 28.33° C | 99% | 1005 hPa | - | - | 0 W/m² | - |
* Rain since midnight (hover to see other rain measurements)
** Current wind speed in m/s (hover to see current wind gust speed)